Terminal Aerodrome Forecast
Issued by NWS

Home | Current Version | Previous Version | Text Only | Print | Product List | Glossary On
Versions: 1 2 3 4 5 6 7 8 9 10 11 12
000
FTUS42 TJSJ 221720
TAFJBQ
TAF
TJBQ 221720Z 2218/2318 06014KT P6SM VCSH SCT025 SCT050
     FM222300 10005KT P6SM FEW035 FEW080
     FM230300 12003KT P6SM SKC
     FM231450 06012KT P6SM VCSH SCT025 SCT040=

USA.gov is the U.S. government's official web portal to all federal, state and local government web resources and services.